sensor_id;sensor_type;location;lat;lon;timestamp;pressure;altitude;pressure_sealevel;temperature;humidity
19086;BME280;9675;51.538;6.728;2022-08-21T00:00:53;101359.66;;;22.96;63.41
19086;BME280;9675;51.538;6.728;2022-08-21T00:03:20;101360.53;;;22.94;63.21
19086;BME280;9675;51.538;6.728;2022-08-21T00:05:50;101359.66;;;22.93;63.63
19086;BME280;9675;51.538;6.728;2022-08-21T00:08:19;101350.00;;;22.89;64.04
19086;BME280;9675;51.538;6.728;2022-08-21T00:10:47;101356.97;;;22.87;64.11
19086;BME280;9675;51.538;6.728;2022-08-21T00:13:16;101354.34;;;22.84;64.43
19086;BME280;9675;51.538;6.728;2022-08-21T00:15:43;101351.69;;;22.79;64.84
19086;BME280;9675;51.538;6.728;2022-08-21T00:18:10;101339.41;;;22.77;65.04
19086;BME280;9675;51.538;6.728;2022-08-21T00:20:43;101343.75;;;22.75;65.17
19086;BME280;9675;51.538;6.728;2022-08-21T00:23:13;101344.63;;;22.72;65.74
19086;BME280;9675;51.538;6.728;2022-08-21T00:25:41;101333.19;;;22.69;65.65
19086;BME280;9675;51.538;6.728;2022-08-21T00:28:09;101334.88;;;22.65;65.90
19086;BME280;9675;51.538;6.728;2022-08-21T00:30:37;101329.63;;;22.62;66.25
19086;BME280;9675;51.538;6.728;2022-08-21T00:33:04;101333.09;;;22.60;66.41
19086;BME280;9675;51.538;6.728;2022-08-21T00:35:35;101336.59;;;22.59;66.61
19086;BME280;9675;51.538;6.728;2022-08-21T00:38:05;101331.31;;;22.56;66.73
19086;BME280;9675;51.538;6.728;2022-08-21T00:40:46;101332.16;;;22.52;66.71
19086;BME280;9675;51.538;6.728;2022-08-21T00:43:17;101334.78;;;22.49;66.99
19086;BME280;9675;51.538;6.728;2022-08-21T00:45:45;101328.59;;;22.45;66.92
19086;BME280;9675;51.538;6.728;2022-08-21T00:48:12;101329.47;;;22.42;67.03
19086;BME280;9675;51.538;6.728;2022-08-21T00:50:46;101327.66;;;22.38;67.62
19086;BME280;9675;51.538;6.728;2022-08-21T00:53:15;101326.75;;;22.35;67.69
19086;BME280;9675;51.538;6.728;2022-08-21T00:55:45;101325.00;;;22.32;67.47
19086;BME280;9675;51.538;6.728;2022-08-21T00:58:15;101324.94;;;22.29;67.95
19086;BME280;9675;51.538;6.728;2022-08-21T01:00:46;101323.19;;;22.27;67.90
19086;BME280;9675;51.538;6.728;2022-08-21T01:03:17;101321.38;;;22.23;68.44
19086;BME280;9675;51.538;6.728;2022-08-21T01:05:45;101328.38;;;22.21;68.25
19086;BME280;9675;51.538;6.728;2022-08-21T01:08:14;101318.72;;;22.17;68.50
19086;BME280;9675;51.538;6.728;2022-08-21T01:10:44;101321.28;;;22.14;68.55
19086;BME280;9675;51.538;6.728;2022-08-21T01:13:14;101319.50;;;22.10;68.63
19086;BME280;9675;51.538;6.728;2022-08-21T01:15:46;101330.88;;;22.07;68.69
19086;BME280;9675;51.538;6.728;2022-08-21T01:18:16;101336.97;;;22.06;69.21
19086;BME280;9675;51.538;6.728;2022-08-21T01:21:01;101333.41;;;22.02;69.35
19086;BME280;9675;51.538;6.728;2022-08-21T01:23:28;101333.38;;;21.98;69.22
19086;BME280;9675;51.538;6.728;2022-08-21T01:25:55;101342.09;;;21.97;69.31
19086;BME280;9675;51.538;6.728;2022-08-21T01:28:24;101332.41;;;21.93;69.30
19086;BME280;9675;51.538;6.728;2022-08-21T01:30:52;101341.09;;;21.89;69.79
19086;BME280;9675;51.538;6.728;2022-08-21T01:33:24;101330.59;;;21.86;69.96
19086;BME280;9675;51.538;6.728;2022-08-21T01:35:52;101334.03;;;21.82;69.93
19086;BME280;9675;51.538;6.728;2022-08-21T01:38:20;101336.63;;;21.79;70.20
19086;BME280;9675;51.538;6.728;2022-08-21T01:40:48;101335.72;;;21.77;70.24
19086;BME280;9675;51.538;6.728;2022-08-21T01:43:15;101337.44;;;21.73;70.40
19086;BME280;9675;51.538;6.728;2022-08-21T01:45:42;101340.91;;;21.71;70.34
19086;BME280;9675;51.538;6.728;2022-08-21T01:48:10;101338.22;;;21.68;70.99
19086;BME280;9675;51.538;6.728;2022-08-21T01:50:37;101331.22;;;21.65;71.31
19086;BME280;9675;51.538;6.728;2022-08-21T01:53:05;101334.63;;;21.61;71.43
19086;BME280;9675;51.538;6.728;2022-08-21T01:55:34;101329.41;;;21.59;71.72
19086;BME280;9675;51.538;6.728;2022-08-21T01:58:01;101326.72;;;21.56;72.04
19086;BME280;9675;51.538;6.728;2022-08-21T02:00:28;101327.56;;;21.52;71.76
19086;BME280;9675;51.538;6.728;2022-08-21T02:02:55;101332.78;;;21.49;72.26
19086;BME280;9675;51.538;6.728;2022-08-21T02:05:23;101337.09;;;21.47;72.34
19086;BME280;9675;51.538;6.728;2022-08-21T02:07:53;101331.84;;;21.44;72.64
19086;BME280;9675;51.538;6.728;2022-08-21T02:10:25;101327.41;;;21.42;72.86
19086;BME280;9675;51.538;6.728;2022-08-21T02:12:56;101325.63;;;21.38;72.96
19086;BME280;9675;51.538;6.728;2022-08-21T02:15:24;101326.44;;;21.35;73.04
19086;BME280;9675;51.538;6.728;2022-08-21T02:17:55;101326.41;;;21.32;73.15
19086;BME280;9675;51.538;6.728;2022-08-21T02:20:27;101317.66;;;21.30;73.59
19086;BME280;9675;51.538;6.728;2022-08-21T02:22:55;101322.00;;;21.28;73.91
19086;BME280;9675;51.538;6.728;2022-08-21T02:25:26;101321.94;;;21.24;74.04
19086;BME280;9675;51.538;6.728;2022-08-21T02:27:55;101318.41;;;21.22;74.32
19086;BME280;9675;51.538;6.728;2022-08-21T02:30:27;101314.03;;;21.19;74.71
19086;BME280;9675;51.538;6.728;2022-08-21T02:32:55;101316.59;;;21.16;74.52
19086;BME280;9675;51.538;6.728;2022-08-21T02:35:23;101320.91;;;21.14;74.92
19086;BME280;9675;51.538;6.728;2022-08-21T02:37:54;101320.84;;;21.11;75.29
19086;BME280;9675;51.538;6.728;2022-08-21T02:40:24;101310.34;;;21.08;75.75
19086;BME280;9675;51.538;6.728;2022-08-21T02:42:54;101314.66;;;21.06;75.61
19086;BME280;9675;51.538;6.728;2022-08-21T02:45:21;101318.97;;;21.04;75.86
19086;BME280;9675;51.538;6.728;2022-08-21T02:47:50;101319.84;;;21.01;76.29
19086;BME280;9675;51.538;6.728;2022-08-21T02:50:21;101315.41;;;20.99;76.42
19086;BME280;9675;51.538;6.728;2022-08-21T02:52:49;101313.63;;;20.95;76.26
19086;BME280;9675;51.538;6.728;2022-08-21T02:55:17;101317.09;;;20.94;76.30
19086;BME280;9675;51.538;6.728;2022-08-21T02:57:44;101310.97;;;20.92;76.62
19086;BME280;9675;51.538;6.728;2022-08-21T03:00:14;101312.66;;;20.90;77.06
19086;BME280;9675;51.538;6.728;2022-08-21T03:02:42;101314.41;;;20.88;77.03
19086;BME280;9675;51.538;6.728;2022-08-21T03:05:13;101304.72;;;20.84;77.01
19086;BME280;9675;51.538;6.728;2022-08-21T03:07:41;101308.19;;;20.81;77.51
19086;BME280;9675;51.538;6.728;2022-08-21T03:10:09;101306.41;;;20.80;77.54
19086;BME280;9675;51.538;6.728;2022-08-21T03:12:36;101307.28;;;20.79;77.35
19086;BME280;9675;51.538;6.728;2022-08-21T03:15:05;101304.66;;;20.77;77.98
19086;BME280;9675;51.538;6.728;2022-08-21T03:17:35;101306.31;;;20.72;78.01
19086;BME280;9675;51.538;6.728;2022-08-21T03:20:04;101301.06;;;20.71;77.89
19086;BME280;9675;51.538;6.728;2022-08-21T03:22:32;101304.47;;;20.68;78.16
19086;BME280;9675;51.538;6.728;2022-08-21T03:25:00;101313.19;;;20.66;78.33
19086;BME280;9675;51.538;6.728;2022-08-21T03:27:28;101308.75;;;20.63;78.44
19086;BME280;9675;51.538;6.728;2022-08-21T03:29:57;101307.00;;;20.61;78.58
19086;BME280;9675;51.538;6.728;2022-08-21T03:32:24;101312.16;;;20.58;79.33
19086;BME280;9675;51.538;6.728;2022-08-21T03:34:53;101306.03;;;20.56;78.99
19086;BME280;9675;51.538;6.728;2022-08-21T03:37:20;101308.59;;;20.53;78.60
19086;BME280;9675;51.538;6.728;2022-08-21T03:39:47;101309.44;;;20.50;79.29
19086;BME280;9675;51.538;6.728;2022-08-21T03:42:15;101306.75;;;20.47;79.08
19086;BME280;9675;51.538;6.728;2022-08-21T03:44:42;101318.09;;;20.46;79.66
19086;BME280;9675;51.538;6.728;2022-08-21T03:47:09;101311.06;;;20.44;79.60
19086;BME280;9675;51.538;6.728;2022-08-21T03:49:36;101304.06;;;20.41;79.89
19086;BME280;9675;51.538;6.728;2022-08-21T03:52:05;101308.38;;;20.39;79.87
19086;BME280;9675;51.538;6.728;2022-08-21T03:54:33;101308.34;;;20.36;80.35
19086;BME280;9675;51.538;6.728;2022-08-21T03:57:02;101310.03;;;20.34;81.46
19086;BME280;9675;51.538;6.728;2022-08-21T03:59:29;101305.59;;;20.31;80.67
19086;BME280;9675;51.538;6.728;2022-08-21T04:01:58;101308.19;;;20.30;80.27
19086;BME280;9675;51.538;6.728;2022-08-21T04:04:28;101311.66;;;20.29;80.91
19086;BME280;9675;51.538;6.728;2022-08-21T04:06:56;101314.19;;;20.26;80.94
19086;BME280;9675;51.538;6.728;2022-08-21T04:09:26;101323.75;;;20.24;81.52
19086;BME280;9675;51.538;6.728;2022-08-21T04:11:53;101328.06;;;20.20;81.88
19086;BME280;9675;51.538;6.728;2022-08-21T04:14:21;101323.66;;;20.18;81.74
19086;BME280;9675;51.538;6.728;2022-08-21T04:16:48;101337.56;;;20.17;82.48
19086;BME280;9675;51.538;6.728;2022-08-21T04:19:15;101336.69;;;20.15;82.55
19086;BME280;9675;51.538;6.728;2022-08-21T04:21:43;101327.91;;;20.13;82.72
19086;BME280;9675;51.538;6.728;2022-08-21T04:24:10;101328.75;;;20.12;83.48
19086;BME280;9675;51.538;6.728;2022-08-21T04:26:39;101333.97;;;20.10;84.68
19086;BME280;9675;51.538;6.728;2022-08-21T04:29:06;101328.75;;;20.10;84.15
19086;BME280;9675;51.538;6.728;2022-08-21T04:31:34;101334.78;;;20.08;85.16
19086;BME280;9675;51.538;6.728;2022-08-21T04:34:03;101326.03;;;20.06;84.91
19086;BME280;9675;51.538;6.728;2022-08-21T04:36:30;101319.06;;;20.05;85.44
19086;BME280;9675;51.538;6.728;2022-08-21T04:38:58;101313.75;;;20.02;85.91
19086;BME280;9675;51.538;6.728;2022-08-21T04:41:26;101327.69;;;20.01;85.52
19086;BME280;9675;51.538;6.728;2022-08-21T04:43:54;101331.16;;;20.00;88.08
19086;BME280;9675;51.538;6.728;2022-08-21T04:46:22;101333.75;;;19.98;87.69
19086;BME280;9675;51.538;6.728;2022-08-21T04:48:51;101334.63;;;19.99;87.76
19086;BME280;9675;51.538;6.728;2022-08-21T04:51:24;101331.97;;;19.97;86.94
19086;BME280;9675;51.538;6.728;2022-08-21T04:53:57;101332.81;;;19.96;87.91
19086;BME280;9675;51.538;6.728;2022-08-21T04:56:30;101328.44;;;19.95;88.05
19086;BME280;9675;51.538;6.728;2022-08-21T04:59:04;101326.66;;;19.92;87.99
19086;BME280;9675;51.538;6.728;2022-08-21T05:01:36;101321.44;;;19.92;88.27
19086;BME280;9675;51.538;6.728;2022-08-21T05:04:06;101322.28;;;19.91;89.10
19086;BME280;9675;51.538;6.728;2022-08-21T05:06:40;101319.66;;;19.91;89.08
19086;BME280;9675;51.538;6.728;2022-08-21T05:09:12;101324.00;;;19.89;90.07
19086;BME280;9675;51.538;6.728;2022-08-21T05:11:41;101328.34;;;19.89;89.55
19086;BME280;9675;51.538;6.728;2022-08-21T05:14:12;101328.28;;;19.86;89.89
19086;BME280;9675;51.538;6.728;2022-08-21T05:16:39;101323.88;;;19.85;91.02
19086;BME280;9675;51.538;6.728;2022-08-21T05:19:08;101334.34;;;19.83;90.91
19086;BME280;9675;51.538;6.728;2022-08-21T05:21:39;101331.72;;;19.83;91.41
19086;BME280;9675;51.538;6.728;2022-08-21T05:24:06;101335.09;;;19.79;91.92
19086;BME280;9675;51.538;6.728;2022-08-21T05:26:35;101336.88;;;19.80;92.02
19086;BME280;9675;51.538;6.728;2022-08-21T05:29:04;101335.97;;;19.78;91.64
19086;BME280;9675;51.538;6.728;2022-08-21T05:31:36;101341.19;;;19.78;92.53
19086;BME280;9675;51.538;6.728;2022-08-21T05:34:05;101336.75;;;19.74;93.49
19086;BME280;9675;51.538;6.728;2022-08-21T05:36:34;101337.53;;;19.70;92.13
19086;BME280;9675;51.538;6.728;2022-08-21T05:39:02;101340.91;;;19.65;92.46
19086;BME280;9675;51.538;6.728;2022-08-21T05:41:29;101332.03;;;19.57;92.81
19086;BME280;9675;51.538;6.728;2022-08-21T05:43:56;101339.84;;;19.55;94.23
19086;BME280;9675;51.538;6.728;2022-08-21T05:46:23;101332.78;;;19.51;93.31
19086;BME280;9675;51.538;6.728;2022-08-21T05:48:52;101330.97;;;19.48;93.64
19086;BME280;9675;51.538;6.728;2022-08-21T05:51:19;101326.59;;;19.46;94.65
19086;BME280;9675;51.538;6.728;2022-08-21T05:53:47;101334.34;;;19.43;94.95
19086;BME280;9675;51.538;6.728;2022-08-21T05:56:15;101333.41;;;19.41;94.51
19086;BME280;9675;51.538;6.728;2022-08-21T05:58:42;101331.59;;;19.37;95.20
19086;BME280;9675;51.538;6.728;2022-08-21T06:01:10;101344.66;;;19.37;94.85
19086;BME280;9675;51.538;6.728;2022-08-21T06:03:39;101339.34;;;19.34;94.12
19086;BME280;9675;51.538;6.728;2022-08-21T06:06:09;101328.88;;;19.34;95.32
19086;BME280;9675;51.538;6.728;2022-08-21T06:08:37;101340.22;;;19.34;95.42
19086;BME280;9675;51.538;6.728;2022-08-21T06:11:06;101331.50;;;19.34;94.74
19086;BME280;9675;51.538;6.728;2022-08-21T06:13:34;101330.69;;;19.36;95.49
19086;BME280;9675;51.538;6.728;2022-08-21T06:16:05;101338.53;;;19.38;94.29
19086;BME280;9675;51.538;6.728;2022-08-21T06:18:33;101340.25;;;19.36;94.58
19086;BME280;9675;51.538;6.728;2022-08-21T06:21:01;101338.50;;;19.35;93.83
19086;BME280;9675;51.538;6.728;2022-08-21T06:23:30;101347.25;;;19.37;94.83
19086;BME280;9675;51.538;6.728;2022-08-21T06:25:57;101342.09;;;19.40;94.16
19086;BME280;9675;51.538;6.728;2022-08-21T06:28:24;101345.63;;;19.42;93.21
19086;BME280;9675;51.538;6.728;2022-08-21T06:30:51;101347.41;;;19.43;93.47
19086;BME280;9675;51.538;6.728;2022-08-21T06:33:18;101338.69;;;19.42;92.98
19086;BME280;9675;51.538;6.728;2022-08-21T06:35:46;101344.78;;;19.43;93.49
19086;BME280;9675;51.538;6.728;2022-08-21T06:38:14;101342.16;;;19.43;93.37
19086;BME280;9675;51.538;6.728;2022-08-21T06:40:43;101343.91;;;19.44;93.27
19086;BME280;9675;51.538;6.728;2022-08-21T06:43:13;101348.41;;;19.48;92.91
19086;BME280;9675;51.538;6.728;2022-08-21T06:45:41;101345.78;;;19.48;91.83
19086;BME280;9675;51.538;6.728;2022-08-21T06:48:09;101342.41;;;19.52;92.55
19086;BME280;9675;51.538;6.728;2022-08-21T06:50:36;101348.59;;;19.59;91.79
19086;BME280;9675;51.538;6.728;2022-08-21T06:53:07;101354.72;;;19.59;90.34
19086;BME280;9675;51.538;6.728;2022-08-21T06:55:36;101344.25;;;19.59;90.95
19086;BME280;9675;51.538;6.728;2022-08-21T06:58:06;101346.03;;;19.60;90.44
19086;BME280;9675;51.538;6.728;2022-08-21T07:00:35;101341.75;;;19.62;90.00
19086;BME280;9675;51.538;6.728;2022-08-21T07:03:03;101346.13;;;19.63;90.72
19086;BME280;9675;51.538;6.728;2022-08-21T07:05:31;101344.53;;;19.71;90.35
19086;BME280;9675;51.538;6.728;2022-08-21T07:07:59;101346.34;;;19.75;89.36
19086;BME280;9675;51.538;6.728;2022-08-21T07:10:27;101351.69;;;19.81;88.58
19086;BME280;9675;51.538;6.728;2022-08-21T07:12:55;101354.47;;;19.89;87.90
19086;BME280;9675;51.538;6.728;2022-08-21T07:15:23;101351.06;;;19.93;86.84
19086;BME280;9675;51.538;6.728;2022-08-21T07:17:51;101347.66;;;19.97;87.05
19086;BME280;9675;51.538;6.728;2022-08-21T07:20:18;101347.75;;;20.02;86.67
19086;BME280;9675;51.538;6.728;2022-08-21T07:22:45;101350.47;;;20.08;85.83
19086;BME280;9675;51.538;6.728;2022-08-21T07:25:13;101359.28;;;20.13;84.52
19086;BME280;9675;51.538;6.728;2022-08-21T07:27:42;101345.41;;;20.17;84.13
19086;BME280;9675;51.538;6.728;2022-08-21T07:30:11;101353.34;;;20.21;84.24
19086;BME280;9675;51.538;6.728;2022-08-21T07:32:39;101344.72;;;20.25;83.38
19086;BME280;9675;51.538;6.728;2022-08-21T07:35:07;101342.22;;;20.31;83.25
19086;BME280;9675;51.538;6.728;2022-08-21T07:37:34;101335.34;;;20.36;82.50
19086;BME280;9675;51.538;6.728;2022-08-21T07:40:03;101349.41;;;20.43;81.94
19086;BME280;9675;51.538;6.728;2022-08-21T07:42:31;101353.88;;;20.49;80.60
19086;BME280;9675;51.538;6.728;2022-08-21T07:44:59;101354.03;;;20.56;79.95
19086;BME280;9675;51.538;6.728;2022-08-21T07:47:28;101353.25;;;20.63;79.04
19086;BME280;9675;51.538;6.728;2022-08-21T07:49:58;101351.66;;;20.71;78.36
19086;BME280;9675;51.538;6.728;2022-08-21T07:52:25;101349.16;;;20.77;77.23
19086;BME280;9675;51.538;6.728;2022-08-21T07:54:53;101353.56;;;20.83;76.47
19086;BME280;9675;51.538;6.728;2022-08-21T07:57:20;101345.00;;;20.92;76.91
19086;BME280;9675;51.538;6.728;2022-08-21T07:59:47;101338.13;;;21.00;75.67
19086;BME280;9675;51.538;6.728;2022-08-21T08:02:23;101334.75;;;21.07;73.93
19086;BME280;9675;51.538;6.728;2022-08-21T08:04:51;101340.97;;;21.13;72.96
19086;BME280;9675;51.538;6.728;2022-08-21T08:07:20;101336.75;;;21.22;71.86
19086;BME280;9675;51.538;6.728;2022-08-21T08:09:48;101342.97;;;21.28;71.37
19086;BME280;9675;51.538;6.728;2022-08-21T08:12:16;101338.69;;;21.36;70.43
19086;BME280;9675;51.538;6.728;2022-08-21T08:14:44;101335.31;;;21.43;69.30
19086;BME280;9675;51.538;6.728;2022-08-21T08:17:11;101335.38;;;21.51;69.09
19086;BME280;9675;51.538;6.728;2022-08-21T08:19:40;101335.53;;;21.61;67.58
19086;BME280;9675;51.538;6.728;2022-08-21T08:22:15;101330.38;;;21.68;67.17
19086;BME280;9675;51.538;6.728;2022-08-21T08:24:47;101331.34;;;21.76;67.38
19086;BME280;9675;51.538;6.728;2022-08-21T08:27:16;101338.44;;;21.84;67.21
19086;BME280;9675;51.538;6.728;2022-08-21T08:29:44;101339.44;;;21.94;66.40
19086;BME280;9675;51.538;6.728;2022-08-21T08:32:14;101337.81;;;22.02;65.92
19086;BME280;9675;51.538;6.728;2022-08-21T08:34:42;101335.22;;;22.08;65.31
19086;BME280;9675;51.538;6.728;2022-08-21T08:37:11;101330.97;;;22.19;65.06
19086;BME280;9675;51.538;6.728;2022-08-21T08:39:39;101331.94;;;22.29;64.55
19086;BME280;9675;51.538;6.728;2022-08-21T08:42:13;101332.91;;;22.38;63.84
19086;BME280;9675;51.538;6.728;2022-08-21T08:44:43;101334.78;;;22.49;63.55
19086;BME280;9675;51.538;6.728;2022-08-21T08:47:14;101332.19;;;22.56;63.33
19086;BME280;9675;51.538;6.728;2022-08-21T08:49:54;101337.50;;;22.65;62.42
19086;BME280;9675;51.538;6.728;2022-08-21T08:52:29;101317.50;;;22.73;62.45
19086;BME280;9675;51.538;6.728;2022-08-21T08:55:04;101328.09;;;22.84;61.46
19086;BME280;9675;51.538;6.728;2022-08-21T08:57:35;101316.72;;;22.91;61.06
19086;BME280;9675;51.538;6.728;2022-08-21T09:00:08;101317.63;;;22.96;60.15
19086;BME280;9675;51.538;6.728;2022-08-21T09:02:39;101321.19;;;23.01;60.62
19086;BME280;9675;51.538;6.728;2022-08-21T09:05:12;101324.75;;;23.09;60.34
19086;BME280;9675;51.538;6.728;2022-08-21T09:07:56;101319.53;;;23.15;59.96
19086;BME280;9675;51.538;6.728;2022-08-21T09:10:36;101319.56;;;23.23;59.74
19086;BME280;9675;51.538;6.728;2022-08-21T09:13:17;101312.59;;;23.29;59.49
19086;BME280;9675;51.538;6.728;2022-08-21T09:15:57;101308.25;;;23.39;59.23
19086;BME280;9675;51.538;6.728;2022-08-21T09:18:41;101312.69;;;23.48;58.99
19086;BME280;9675;51.538;6.728;2022-08-21T09:21:21;101311.88;;;23.55;57.96
19086;BME280;9675;51.538;6.728;2022-08-21T09:24:02;101319.78;;;23.64;58.44
19086;BME280;9675;51.538;6.728;2022-08-21T09:26:52;101313.69;;;23.71;57.67
19086;BME280;9675;51.538;6.728;2022-08-21T09:29:26;101301.41;;;23.75;57.96
19086;BME280;9675;51.538;6.728;2022-08-21T09:31:56;101305.84;;;23.83;57.92
19086;BME280;9675;51.538;6.728;2022-08-21T09:34:28;101302.34;;;23.90;56.91
19086;BME280;9675;51.538;6.728;2022-08-21T09:36:58;101301.50;;;23.99;56.50
19086;BME280;9675;51.538;6.728;2022-08-21T09:39:30;101300.63;;;24.07;56.55
19086;BME280;9675;51.538;6.728;2022-08-21T09:42:02;101291.91;;;24.18;56.92
19086;BME280;9675;51.538;6.728;2022-08-21T09:44:34;101305.94;;;24.26;56.05
19086;BME280;9675;51.538;6.728;2022-08-21T09:47:06;101292.78;;;24.30;56.20
19086;BME280;9675;51.538;6.728;2022-08-21T09:49:40;101292.81;;;24.35;55.46
19086;BME280;9675;51.538;6.728;2022-08-21T09:52:19;101298.06;;;24.45;55.71
19086;BME280;9675;51.538;6.728;2022-08-21T09:54:52;101298.94;;;24.55;55.16
19086;BME280;9675;51.538;6.728;2022-08-21T09:57:25;101297.16;;;24.63;54.74
19086;BME280;9675;51.538;6.728;2022-08-21T10:00:20;101295.38;;;24.77;54.31
19086;BME280;9675;51.538;6.728;2022-08-21T10:02:51;101284.88;;;24.86;54.08
19086;BME280;9675;51.538;6.728;2022-08-21T10:05:23;101289.25;;;24.96;53.80
19086;BME280;9675;51.538;6.728;2022-08-21T10:07:52;101286.59;;;25.04;53.02
19086;BME280;9675;51.538;6.728;2022-08-21T10:10:30;101288.31;;;25.14;52.82
19086;BME280;9675;51.538;6.728;2022-08-21T10:13:06;101275.09;;;25.23;52.61
19086;BME280;9675;51.538;6.728;2022-08-21T10:15:51;101269.78;;;25.34;52.62
19086;BME280;9675;51.538;6.728;2022-08-21T10:18:29;101276.78;;;25.47;52.33
19086;BME280;9675;51.538;6.728;2022-08-21T10:21:11;101276.75;;;25.53;51.39
19086;BME280;9675;51.538;6.728;2022-08-21T10:24:01;101275.84;;;25.66;51.53
19086;BME280;9675;51.538;6.728;2022-08-21T10:26:48;101275.75;;;25.81;51.26
19086;BME280;9675;51.538;6.728;2022-08-21T10:29:39;101280.13;;;25.89;50.56
19086;BME280;9675;51.538;6.728;2022-08-21T10:32:27;101266.84;;;25.98;51.01
19086;BME280;9675;51.538;6.728;2022-08-21T10:35:08;101272.03;;;26.11;50.75
19086;BME280;9675;51.538;6.728;2022-08-21T10:38:13;101269.34;;;26.20;50.91
19086;BME280;9675;51.538;6.728;2022-08-21T10:41:01;101264.88;;;26.30;50.44
19086;BME280;9675;51.538;6.728;2022-08-21T10:43:50;101263.00;;;26.44;50.05
19086;BME280;9675;51.538;6.728;2022-08-21T10:46:44;101263.81;;;26.52;48.83
19086;BME280;9675;51.538;6.728;2022-08-21T10:49:27;101266.38;;;26.61;49.08
19086;BME280;9675;51.538;6.728;2022-08-21T10:52:16;101267.16;;;26.71;49.13
19086;BME280;9675;51.538;6.728;2022-08-21T10:54:52;101267.09;;;26.76;49.28
19086;BME280;9675;51.538;6.728;2022-08-21T10:57:42;101267.09;;;26.79;48.06
19086;BME280;9675;51.538;6.728;2022-08-21T11:00:16;101271.47;;;26.80;47.92
19086;BME280;9675;51.538;6.728;2022-08-21T11:02:50;101272.25;;;26.91;48.24
19086;BME280;9675;51.538;6.728;2022-08-21T11:05:29;101265.94;;;27.05;48.34
19086;BME280;9675;51.538;6.728;2022-08-21T11:08:05;101257.91;;;27.15;47.34
19086;BME280;9675;51.538;6.728;2022-08-21T11:10:42;101264.84;;;27.25;47.26
19086;BME280;9675;51.538;6.728;2022-08-21T11:13:20;101262.06;;;27.35;46.27
19086;BME280;9675;51.538;6.728;2022-08-21T11:15:56;101262.81;;;27.43;46.67
19086;BME280;9675;51.538;6.728;2022-08-21T11:18:32;101266.31;;;27.50;46.20
19086;BME280;9675;51.538;6.728;2022-08-21T11:21:32;101275.97;;;27.53;45.89
19086;BME280;9675;51.538;6.728;2022-08-21T11:24:17;101272.28;;;27.63;45.46
19086;BME280;9675;51.538;6.728;2022-08-21T11:26:57;101264.22;;;27.73;45.05
19086;BME280;9675;51.538;6.728;2022-08-21T11:29:29;101265.88;;;27.80;45.16
19086;BME280;9675;51.538;6.728;2022-08-21T11:32:25;101262.19;;;27.90;44.51
19086;BME280;9675;51.538;6.728;2022-08-21T11:35:10;101249.72;;;27.99;44.82
19086;BME280;9675;51.538;6.728;2022-08-21T11:37:57;101261.06;;;28.07;44.23
19086;BME280;9675;51.538;6.728;2022-08-21T11:40:44;101262.69;;;28.18;44.22
19086;BME280;9675;51.538;6.728;2022-08-21T11:43:25;101263.41;;;28.28;44.05
19086;BME280;9675;51.538;6.728;2022-08-21T11:46:02;101257.88;;;28.40;43.42
19086;BME280;9675;51.538;6.728;2022-08-21T11:48:46;101265.66;;;28.51;43.71
19086;BME280;9675;51.538;6.728;2022-08-21T11:51:21;101254.91;;;28.60;43.52
19086;BME280;9675;51.538;6.728;2022-08-21T11:54:00;101259.16;;;28.70;43.37
19086;BME280;9675;51.538;6.728;2022-08-21T11:56:37;101252.81;;;28.79;43.79
19086;BME280;9675;51.538;6.728;2022-08-21T11:59:13;101247.31;;;28.89;43.12
19086;BME280;9675;51.538;6.728;2022-08-21T12:01:49;101249.78;;;28.98;42.98
19086;BME280;9675;51.538;6.728;2022-08-21T12:04:26;101253.28;;;29.00;43.06
19086;BME280;9675;51.538;6.728;2022-08-21T12:06:54;101241.91;;;28.95;42.27
19086;BME280;9675;51.538;6.728;2022-08-21T12:09:34;101251.47;;;29.02;42.29
19086;BME280;9675;51.538;6.728;2022-08-21T12:12:11;101249.66;;;29.06;42.48
19086;BME280;9675;51.538;6.728;2022-08-21T12:14:44;101244.13;;;29.17;42.22
19086;BME280;9675;51.538;6.728;2022-08-21T12:17:20;101244.69;;;29.31;42.19
19086;BME280;9675;51.538;6.728;2022-08-21T12:19:59;101242.84;;;29.36;42.13
19086;BME280;9675;51.538;6.728;2022-08-21T12:22:38;101249.00;;;29.38;41.02
19086;BME280;9675;51.538;6.728;2022-08-21T12:25:11;101245.31;;;29.45;40.90
19086;BME280;9675;51.538;6.728;2022-08-21T12:27:49;101245.16;;;29.52;40.83
19086;BME280;9675;51.538;6.728;2022-08-21T12:30:35;101247.56;;;29.63;40.70
19086;BME280;9675;51.538;6.728;2022-08-21T12:33:16;101246.44;;;29.73;41.02
19086;BME280;9675;51.538;6.728;2022-08-21T12:35:50;101243.69;;;29.78;40.60
19086;BME280;9675;51.538;6.728;2022-08-21T12:38:22;101240.91;;;29.82;40.40
19086;BME280;9675;51.538;6.728;2022-08-21T12:40:57;101240.06;;;29.80;40.37
19086;BME280;9675;51.538;6.728;2022-08-21T12:43:33;101239.00;;;29.89;40.24
19086;BME280;9675;51.538;6.728;2022-08-21T12:46:02;101243.34;;;29.94;40.05
19086;BME280;9675;51.538;6.728;2022-08-21T12:48:36;101239.75;;;29.95;39.89
19086;BME280;9675;51.538;6.728;2022-08-21T12:51:13;101235.31;;;29.96;40.29
19086;BME280;9675;51.538;6.728;2022-08-21T12:53:48;101238.69;;;30.03;40.11
19086;BME280;9675;51.538;6.728;2022-08-21T12:56:22;101235.00;;;30.08;39.79
19086;BME280;9675;51.538;6.728;2022-08-21T12:58:55;101227.91;;;30.10;40.67
19086;BME280;9675;51.538;6.728;2022-08-21T13:01:29;101233.09;;;30.15;39.80
19086;BME280;9675;51.538;6.728;2022-08-21T13:04:06;101227.72;;;30.16;39.83
19086;BME280;9675;51.538;6.728;2022-08-21T13:06:40;101239.22;;;30.17;39.55
19086;BME280;9675;51.538;6.728;2022-08-21T13:09:12;101235.56;;;30.21;39.50
19086;BME280;9675;51.538;6.728;2022-08-21T13:11:46;101240.81;;;30.24;39.27
19086;BME280;9675;51.538;6.728;2022-08-21T13:14:24;101242.63;;;30.22;39.23
19086;BME280;9675;51.538;6.728;2022-08-21T13:16:55;101234.06;;;30.11;38.68
19086;BME280;9675;51.538;6.728;2022-08-21T13:19:23;101230.50;;;30.12;39.29
19086;BME280;9675;51.538;6.728;2022-08-21T13:21:51;101239.22;;;30.17;39.06
19086;BME280;9675;51.538;6.728;2022-08-21T13:24:25;101222.41;;;30.16;39.11